createdAt,value
2022-12-29T00:01:02.902Z,107.95
2022-12-29T00:03:30.409Z,140.43
2022-12-29T00:05:58.799Z,101.63
2022-12-29T00:08:41.015Z,85.20
2022-12-29T00:11:10.737Z,120.13
2022-12-29T00:13:57.069Z,114.53
2022-12-29T00:16:24.727Z,107.85
2022-12-29T00:18:51.978Z,128.23
2022-12-29T00:21:40.274Z,83.82
2022-12-29T00:24:26.305Z,123.35
2022-12-29T00:27:18.125Z,137.75
2022-12-29T00:30:04.026Z,109.70
2022-12-29T00:32:49.890Z,95.95
2022-12-29T00:35:29.874Z,94.63
2022-12-29T00:38:18.771Z,94.43
2022-12-29T00:41:04.511Z,98.63
2022-12-29T00:43:50.249Z,110.47
2022-12-29T00:46:21.764Z,90.10
2022-12-29T00:49:07.334Z,97.43
2022-12-29T00:51:34.699Z,111.07
2022-12-29T00:54:01.820Z,102.05
2022-12-29T00:56:29.064Z,71.55
2022-12-29T00:58:56.205Z,81.50
2022-12-29T01:01:23.477Z,76.63
2022-12-29T01:03:50.834Z,75.30
2022-12-29T01:06:17.995Z,70.15
2022-12-29T01:08:45.499Z,69.78
2022-12-29T01:11:13.948Z,79.43
2022-12-29T01:13:43.608Z,70.43
2022-12-29T01:16:10.959Z,66.85
2022-12-29T01:18:38.358Z,66.82
2022-12-29T01:21:07.469Z,118.47
2022-12-29T01:23:34.620Z,51.78
2022-12-29T01:26:15.912Z,58.33
2022-12-29T01:28:43.601Z,67.68
2022-12-29T01:31:12.275Z,59.38
2022-12-29T01:33:39.969Z,60.25
2022-12-29T01:36:10.325Z,47.22
2022-12-29T01:38:38.891Z,50.38
2022-12-29T01:41:07.344Z,55.38
2022-12-29T01:43:54.548Z,68.57
2022-12-29T01:46:40.150Z,53.40
2022-12-29T01:49:14.812Z,60.80
2022-12-29T01:51:49.353Z,79.55
2022-12-29T01:54:42.735Z,78.38
2022-12-29T01:57:18.932Z,108.03
2022-12-29T01:59:54.224Z,62.63
2022-12-29T02:02:21.645Z,57.92
2022-12-29T02:04:49.306Z,62.53
2022-12-29T02:07:20.343Z,59.22
2022-12-29T02:09:52.252Z,53.65
2022-12-29T02:12:21.640Z,56.40
2022-12-29T02:14:52.515Z,75.22
2022-12-29T02:17:29.617Z,97.03
2022-12-29T02:20:32.060Z,52.45
2022-12-29T02:23:42.772Z,93.15
2022-12-29T02:26:50.609Z,89.28
2022-12-29T02:29:52.054Z,46.17
2022-12-29T02:32:38.492Z,80.95
2022-12-29T02:35:10.843Z,56.78
2022-12-29T02:37:57.700Z,75.10
2022-12-29T02:40:42.598Z,85.35
2022-12-29T02:43:27.643Z,80.90
2022-12-29T02:46:34.587Z,109.22
2022-12-29T02:49:25.566Z,60.30
2022-12-29T02:52:07.742Z,117.32
2022-12-29T02:54:43.793Z,82.10
2022-12-29T02:57:23.059Z,87.57
2022-12-29T03:00:01.967Z,90.55
2022-12-29T03:02:53.424Z,88.53
2022-12-29T03:05:27.036Z,94.70
2022-12-29T03:08:24.379Z,92.18
2022-12-29T03:11:06.528Z,113.20
2022-12-29T03:14:09.413Z,71.72
2022-12-29T03:16:48.864Z,70.47
2022-12-29T03:19:23.016Z,82.95
2022-12-29T03:22:13.542Z,74.22
2022-12-29T03:24:48.029Z,99.00
2022-12-29T03:27:20.460Z,76.70
2022-12-29T03:29:55.210Z,76.93
2022-12-29T03:32:27.268Z,155.80
2022-12-29T03:34:56.329Z,82.70
2022-12-29T03:37:29.367Z,129.77
2022-12-29T03:39:57.806Z,82.45
2022-12-29T03:42:28.648Z,118.60
2022-12-29T03:44:57.924Z,72.47
2022-12-29T03:47:25.843Z,117.97
2022-12-29T03:49:53.742Z,113.63
2022-12-29T03:52:20.926Z,108.03
2022-12-29T03:54:48.405Z,56.65
2022-12-29T03:57:15.534Z,74.78
2022-12-29T03:59:42.666Z,64.30
2022-12-29T04:02:10.080Z,118.22
2022-12-29T04:04:37.456Z,70.32
2022-12-29T04:07:04.722Z,84.50
2022-12-29T04:09:32.518Z,99.53
2022-12-29T04:11:59.703Z,74.53
2022-12-29T04:14:27.011Z,89.68
2022-12-29T04:16:54.132Z,54.20
2022-12-29T04:19:21.245Z,89.65
2022-12-29T04:21:48.492Z,93.85
2022-12-29T04:24:15.656Z,120.03
2022-12-29T04:26:43.030Z,59.53
2022-12-29T04:29:10.339Z,54.13
2022-12-29T04:31:37.535Z,60.92
2022-12-29T04:34:04.827Z,66.57
2022-12-29T04:36:32.138Z,84.28
2022-12-29T04:38:59.394Z,82.47
2022-12-29T04:41:26.694Z,74.18
2022-12-29T04:43:54.023Z,62.78
2022-12-29T04:46:21.278Z,70.25
2022-12-29T04:48:48.675Z,72.30
2022-12-29T04:51:16.176Z,48.65
2022-12-29T04:53:43.422Z,57.22
2022-12-29T04:56:10.727Z,45.63
2022-12-29T04:58:38.569Z,50.97
2022-12-29T05:01:05.703Z,54.33
2022-12-29T05:03:32.932Z,51.50
2022-12-29T05:06:00.277Z,54.25
2022-12-29T05:08:28.628Z,62.85
2022-12-29T05:10:56.011Z,87.85
2022-12-29T05:13:23.721Z,63.50
2022-12-29T05:15:54.691Z,114.13
2022-12-29T05:18:22.061Z,95.30
2022-12-29T05:20:49.490Z,78.80
2022-12-29T05:23:17.154Z,59.83
2022-12-29T05:25:46.956Z,116.13
2022-12-29T05:28:14.613Z,111.28
2022-12-29T05:30:41.790Z,144.50
2022-12-29T05:33:08.980Z,78.13
2022-12-29T05:35:36.181Z,112.35
2022-12-29T05:38:03.400Z,91.65
2022-12-29T05:40:30.562Z,63.92
2022-12-29T05:42:57.827Z,74.82
2022-12-29T05:45:25.044Z,93.22
2022-12-29T05:47:52.236Z,83.18
2022-12-29T05:50:19.412Z,67.10
2022-12-29T05:52:46.824Z,87.30
2022-12-29T05:55:13.977Z,77.50
2022-12-29T05:57:41.718Z,67.47
2022-12-29T06:00:09.636Z,66.78
2022-12-29T06:02:37.167Z,56.65
2022-12-29T06:05:04.714Z,58.28
2022-12-29T06:07:31.867Z,67.20
2022-12-29T06:09:58.980Z,76.25
2022-12-29T06:12:26.143Z,73.88
2022-12-29T06:14:53.331Z,72.70
2022-12-29T06:17:20.491Z,62.63
2022-12-29T06:19:47.736Z,68.40
2022-12-29T06:22:14.923Z,72.63
2022-12-29T06:24:42.165Z,65.65
2022-12-29T06:27:09.556Z,74.82
2022-12-29T06:29:38.254Z,74.15
2022-12-29T06:32:05.506Z,73.30
2022-12-29T06:34:32.814Z,85.28
2022-12-29T06:37:00.078Z,63.83
2022-12-29T06:39:27.380Z,49.72
2022-12-29T06:41:55.200Z,190.57
2022-12-29T06:44:23.120Z,63.53
2022-12-29T06:46:51.294Z,152.98
2022-12-29T06:49:18.897Z,67.68
2022-12-29T06:51:46.660Z,76.72
2022-12-29T06:54:14.150Z,112.38
2022-12-29T06:56:41.583Z,73.57
2022-12-29T06:59:08.781Z,152.07
2022-12-29T07:01:37.183Z,71.35
2022-12-29T07:04:05.029Z,55.80
2022-12-29T07:06:32.258Z,83.90
2022-12-29T07:08:59.532Z,124.95
2022-12-29T07:11:26.958Z,105.18
2022-12-29T07:13:54.089Z,124.72
2022-12-29T07:16:21.468Z,115.55
2022-12-29T07:18:48.705Z,226.52
2022-12-29T07:21:15.953Z,85.30
2022-12-29T07:23:43.355Z,213.20
2022-12-29T07:26:13.577Z,160.52
2022-12-29T07:28:40.789Z,167.52
2022-12-29T07:31:14.052Z,197.10
2022-12-29T07:33:41.183Z,289.45
2022-12-29T07:36:08.701Z,140.18
2022-12-29T07:38:36.099Z,111.20
2022-12-29T07:41:03.337Z,66.47
2022-12-29T07:43:30.624Z,104.95
2022-12-29T07:45:57.936Z,69.25
2022-12-29T07:48:25.171Z,89.10
2022-12-29T07:50:53.182Z,52.72
2022-12-29T07:53:20.739Z,68.90
2022-12-29T07:55:48.050Z,69.15
2022-12-29T07:58:15.172Z,60.28
2022-12-29T08:00:42.459Z,88.45
2022-12-29T08:03:09.544Z,74.18
2022-12-29T08:05:36.835Z,56.08
2022-12-29T08:08:04.141Z,61.33
2022-12-29T08:10:31.336Z,98.43
2022-12-29T08:12:59.266Z,84.72
2022-12-29T08:15:32.186Z,104.22
2022-12-29T08:17:59.851Z,97.28
2022-12-29T08:20:27.143Z,81.95
2022-12-29T08:22:54.329Z,89.95
2022-12-29T08:25:21.513Z,106.50
2022-12-29T08:27:48.762Z,103.97
2022-12-29T08:30:16.211Z,97.40
2022-12-29T08:32:43.687Z,146.35
2022-12-29T08:35:10.911Z,106.72
2022-12-29T08:37:38.472Z,138.60
2022-12-29T08:40:06.998Z,103.10
2022-12-29T08:42:34.904Z,97.05
2022-12-29T08:45:02.664Z,110.68
2022-12-29T08:47:29.835Z,96.68
2022-12-29T08:49:57.063Z,111.97
2022-12-29T08:52:24.206Z,96.95
2022-12-29T08:54:51.356Z,99.13
2022-12-29T08:57:18.606Z,157.02
2022-12-29T08:59:45.808Z,126.57
2022-12-29T09:02:17.514Z,117.68
2022-12-29T09:04:47.664Z,102.68
2022-12-29T09:07:14.926Z,212.52
2022-12-29T09:09:42.019Z,141.75
2022-12-29T09:12:09.268Z,118.32
2022-12-29T09:14:36.451Z,127.75
2022-12-29T09:17:22.191Z,99.15
2022-12-29T09:19:49.562Z,187.98
2022-12-29T09:22:16.775Z,125.25
2022-12-29T09:24:44.011Z,119.70
2022-12-29T09:27:11.198Z,137.48
2022-12-29T09:29:38.391Z,164.15
2022-12-29T09:32:07.774Z,162.63
2022-12-29T09:34:35.648Z,133.23
2022-12-29T09:37:02.827Z,120.07
2022-12-29T09:39:30.051Z,113.93
2022-12-29T09:42:14.366Z,136.02
2022-12-29T09:45:05.820Z,123.95
2022-12-29T09:47:33.126Z,105.22
2022-12-29T09:50:15.137Z,91.90
2022-12-29T09:52:51.857Z,89.60
2022-12-29T09:55:23.728Z,130.48
2022-12-29T09:57:55.466Z,87.50
2022-12-29T10:00:25.780Z,87.15
2022-12-29T10:03:16.095Z,89.93
2022-12-29T10:05:49.874Z,84.85
2022-12-29T10:10:53.290Z,64.70
2022-12-29T10:13:41.957Z,69.97
2022-12-29T10:16:45.548Z,60.90
2022-12-29T10:19:21.629Z,57.20
2022-12-29T10:22:05.251Z,59.88
2022-12-29T10:24:34.646Z,52.03
2022-12-29T10:27:02.273Z,53.72
2022-12-29T10:29:38.369Z,43.72
2022-12-29T10:32:27.422Z,45.30
2022-12-29T10:34:59.972Z,40.40
2022-12-29T10:38:03.772Z,50.25
2022-12-29T10:41:05.292Z,36.40
2022-12-29T10:43:37.664Z,39.10
2022-12-29T10:46:12.535Z,41.47
2022-12-29T10:48:39.975Z,31.23
2022-12-29T10:51:12.434Z,41.15
2022-12-29T10:54:12.353Z,35.95
2022-12-29T10:56:55.305Z,35.92
2022-12-29T10:59:25.144Z,35.05
2022-12-29T11:02:10.569Z,33.92
2022-12-29T11:04:52.627Z,40.95
2022-12-29T11:07:27.061Z,40.75
2022-12-29T11:09:55.671Z,34.72
2022-12-29T11:12:32.160Z,35.92
2022-12-29T11:15:10.733Z,30.58
2022-12-29T11:17:48.994Z,24.88
2022-12-29T11:20:30.004Z,25.48
2022-12-29T11:22:57.776Z,26.90
2022-12-29T11:25:24.951Z,23.52
2022-12-29T11:28:01.665Z,26.17
2022-12-29T11:30:32.024Z,20.60
2022-12-29T11:33:03.983Z,21.70
2022-12-29T11:35:35.538Z,19.70
2022-12-29T11:38:04.270Z,22.27
2022-12-29T11:40:31.825Z,21.90
2022-12-29T11:43:03.942Z,20.20
2022-12-29T11:45:38.291Z,19.02
2022-12-29T11:48:14.103Z,21.05
2022-12-29T11:50:43.782Z,19.63
2022-12-29T11:53:44.200Z,22.77
2022-12-29T11:56:17.434Z,26.00
2022-12-29T11:58:45.346Z,22.45
2022-12-29T12:01:42.519Z,23.83
2022-12-29T12:04:22.753Z,22.10
2022-12-29T12:06:55.645Z,25.25
2022-12-29T12:09:38.160Z,27.83
2022-12-29T12:12:07.238Z,24.83
2022-12-29T12:14:47.961Z,23.83
2022-12-29T12:17:25.134Z,27.65
2022-12-29T12:20:19.188Z,29.08
2022-12-29T12:23:03.863Z,27.08
2022-12-29T12:25:39.586Z,34.97
2022-12-29T12:28:44.390Z,32.15
2022-12-29T12:31:24.983Z,34.53
2022-12-29T12:33:59.107Z,35.97
2022-12-29T12:36:50.244Z,34.97
2022-12-29T12:39:45.359Z,31.25
2022-12-29T12:42:39.593Z,34.55
2022-12-29T12:48:31.143Z,31.05
2022-12-29T12:51:16.783Z,30.67
2022-12-29T12:54:01.499Z,37.67
2022-12-29T12:56:46.906Z,35.05
2022-12-29T12:59:14.031Z,46.75
2022-12-29T13:02:00.155Z,51.42
2022-12-29T13:04:38.719Z,37.35
2022-12-29T13:07:26.991Z,41.75
2022-12-29T13:10:18.787Z,47.35
2022-12-29T13:13:01.172Z,52.58
2022-12-29T13:15:31.111Z,51.95
2022-12-29T13:18:16.359Z,46.92
2022-12-29T13:20:56.116Z,37.13
2022-12-29T13:23:38.711Z,52.15
2022-12-29T13:26:33.557Z,50.22
2022-12-29T13:29:31.315Z,55.58
2022-12-29T13:32:12.311Z,40.33
2022-12-29T13:35:05.790Z,56.88
2022-12-29T13:37:37.392Z,51.50
2022-12-29T13:40:14.337Z,51.90
2022-12-29T13:42:43.393Z,49.78
2022-12-29T13:45:19.502Z,62.60
2022-12-29T13:47:56.509Z,48.08
2022-12-29T13:50:27.408Z,47.63
2022-12-29T13:53:00.244Z,54.70
2022-12-29T13:55:36.374Z,47.67
2022-12-29T13:58:18.459Z,44.17
2022-12-29T14:01:10.656Z,40.30
2022-12-29T14:03:45.221Z,55.25
2022-12-29T14:06:26.684Z,46.22
2022-12-29T14:09:06.033Z,43.55
2022-12-29T14:11:42.419Z,46.35
2022-12-29T14:14:25.926Z,53.97
2022-12-29T14:16:54.296Z,62.10
2022-12-29T14:19:28.143Z,45.25
2022-12-29T14:22:04.639Z,55.40
2022-12-29T14:24:37.851Z,55.65
2022-12-29T14:27:11.163Z,63.45
2022-12-29T14:29:41.056Z,56.35
2022-12-29T14:32:26.395Z,57.80
2022-12-29T14:34:57.814Z,65.50
2022-12-29T14:37:32.355Z,61.67
2022-12-29T14:40:21.159Z,65.07
2022-12-29T14:42:49.804Z,71.70
2022-12-29T14:45:17.818Z,62.80
2022-12-29T14:47:46.139Z,62.90
2022-12-29T14:50:17.689Z,53.65
2022-12-29T14:53:03.025Z,63.42
2022-12-29T14:55:43.047Z,69.18
2022-12-29T14:58:21.613Z,68.72
2022-12-29T15:00:50.059Z,41.30
2022-12-29T15:03:51.165Z,52.63
2022-12-29T15:06:23.385Z,55.05
2022-12-29T15:09:16.427Z,49.90
2022-12-29T15:11:50.035Z,44.70
2022-12-29T15:14:32.717Z,50.33
2022-12-29T15:17:00.032Z,43.08
2022-12-29T15:19:28.522Z,44.00
2022-12-29T15:21:57.090Z,57.42
2022-12-29T15:24:25.848Z,69.22
2022-12-29T15:26:55.903Z,69.53
2022-12-29T15:29:34.286Z,70.57
2022-12-29T15:32:11.986Z,61.10
2022-12-29T15:34:40.036Z,68.45
2022-12-29T15:37:09.022Z,67.55
2022-12-29T15:39:37.032Z,97.07
2022-12-29T15:42:41.185Z,78.50
2022-12-29T15:45:13.803Z,88.28
2022-12-29T15:47:43.953Z,108.38
2022-12-29T15:50:19.582Z,86.30
2022-12-29T15:52:47.221Z,132.43
2022-12-29T15:55:31.255Z,109.20
2022-12-29T15:58:01.643Z,124.70
2022-12-29T16:00:31.877Z,117.13
2022-12-29T16:03:02.820Z,64.15
2022-12-29T16:05:35.557Z,108.18
2022-12-29T16:08:04.349Z,78.67
2022-12-29T16:10:41.396Z,63.17
2022-12-29T16:13:39.613Z,60.35
2022-12-29T16:16:24.222Z,61.67
2022-12-29T16:18:57.431Z,57.85
2022-12-29T16:21:32.692Z,64.95
2022-12-29T16:24:13.374Z,48.58
2022-12-29T16:26:46.383Z,50.15
2022-12-29T16:29:14.862Z,44.83
2022-12-29T16:31:50.780Z,58.97
2022-12-29T16:34:31.307Z,43.47
2022-12-29T16:37:04.035Z,46.67
2022-12-29T16:39:41.109Z,40.30
2022-12-29T16:42:45.796Z,40.00
2022-12-29T16:45:21.312Z,39.22
2022-12-29T16:48:06.717Z,46.00
2022-12-29T16:50:36.906Z,35.78
2022-12-29T16:53:05.530Z,45.38
2022-12-29T16:55:33.700Z,42.30
2022-12-29T16:58:01.726Z,33.83
2022-12-29T17:00:38.075Z,41.95
2022-12-29T17:03:05.512Z,39.55
2022-12-29T17:05:32.738Z,42.05
2022-12-29T17:08:02.183Z,40.10
2022-12-29T17:10:50.401Z,38.85
2022-12-29T17:13:17.529Z,36.58
2022-12-29T17:15:44.758Z,39.13
2022-12-29T17:18:14.075Z,44.55
2022-12-29T17:20:41.448Z,36.72
2022-12-29T17:23:19.954Z,35.58
2022-12-29T17:25:55.147Z,35.97
2022-12-29T17:28:26.727Z,38.15
2022-12-29T17:30:55.943Z,35.33
2022-12-29T17:33:23.323Z,45.08
2022-12-29T17:35:55.221Z,37.13
2022-12-29T17:38:31.006Z,38.90
2022-12-29T17:40:59.427Z,35.20
2022-12-29T17:43:34.611Z,36.97
2022-12-29T17:46:05.896Z,43.05
2022-12-29T17:48:32.956Z,41.25
2022-12-29T17:51:00.185Z,44.67
2022-12-29T17:53:30.075Z,44.42
2022-12-29T17:55:57.394Z,41.65
2022-12-29T17:58:29.628Z,51.10
2022-12-29T18:00:59.856Z,40.60
2022-12-29T18:03:33.873Z,40.00
2022-12-29T18:06:01.812Z,40.10
2022-12-29T18:08:29.692Z,35.00
2022-12-29T18:10:57.591Z,45.10
2022-12-29T18:13:45.545Z,43.65
2022-12-29T18:16:14.767Z,40.75
2022-12-29T18:18:42.048Z,39.55
2022-12-29T18:21:18.230Z,42.85
2022-12-29T18:23:46.108Z,32.58
2022-12-29T18:26:22.292Z,35.10
2022-12-29T18:28:54.346Z,37.92
2022-12-29T18:31:24.554Z,38.67
2022-12-29T18:33:53.497Z,44.35
2022-12-29T18:36:21.612Z,43.25
2022-12-29T18:38:51.142Z,47.13
2022-12-29T18:41:23.861Z,48.72
2022-12-29T18:43:53.249Z,48.87
2022-12-29T18:46:23.420Z,50.95
2022-12-29T18:48:51.553Z,61.50
2022-12-29T18:51:25.171Z,48.35
2022-12-29T18:53:54.526Z,45.22
2022-12-29T18:56:22.954Z,56.90
2022-12-29T18:58:50.837Z,49.38
2022-12-29T19:01:21.689Z,49.97
2022-12-29T19:03:49.521Z,51.92
2022-12-29T19:06:16.918Z,56.17
2022-12-29T19:08:44.043Z,54.63
2022-12-29T19:11:11.202Z,50.70
2022-12-29T19:13:38.686Z,57.58
2022-12-29T19:16:08.951Z,50.88
2022-12-29T19:18:45.414Z,47.78
2022-12-29T19:21:14.046Z,41.40
2022-12-29T19:23:41.248Z,48.08
2022-12-29T19:26:17.315Z,42.00
2022-12-29T19:28:44.495Z,47.53
2022-12-29T19:31:11.724Z,45.42
2022-12-29T19:33:38.978Z,45.55
2022-12-29T19:36:06.432Z,45.33
2022-12-29T19:38:33.527Z,49.85
2022-12-29T19:41:00.745Z,40.55
2022-12-29T19:43:27.943Z,41.78
2022-12-29T19:45:55.159Z,44.22
2022-12-29T19:48:22.494Z,43.42
2022-12-29T19:50:49.839Z,41.97
2022-12-29T19:53:17.020Z,47.08
2022-12-29T19:55:47.982Z,44.60
2022-12-29T19:58:15.765Z,44.38
2022-12-29T20:00:43.870Z,44.08
2022-12-29T20:03:11.828Z,35.90
2022-12-29T20:05:40.131Z,53.03
2022-12-29T20:08:07.722Z,78.32
2022-12-29T20:10:34.932Z,56.67
2022-12-29T20:13:02.916Z,45.80
2022-12-29T20:15:30.123Z,36.17
2022-12-29T20:18:14.509Z,33.92
2022-12-29T20:20:42.777Z,49.15
2022-12-29T20:23:10.164Z,33.10
2022-12-29T20:25:46.124Z,35.15
2022-12-29T20:28:15.200Z,33.05
2022-12-29T20:30:44.489Z,39.13
2022-12-29T20:33:11.669Z,40.45
2022-12-29T20:35:39.251Z,39.17
2022-12-29T20:38:06.511Z,40.60
2022-12-29T20:40:33.674Z,37.13
2022-12-29T20:43:00.854Z,38.40
2022-12-29T20:45:28.044Z,41.75
2022-12-29T20:47:55.214Z,40.90
2022-12-29T20:50:22.583Z,45.70
2022-12-29T20:52:49.812Z,44.97
2022-12-29T20:55:17.044Z,43.88
2022-12-29T20:58:21.975Z,53.80
2022-12-29T21:00:32.974Z,49.17
2022-12-29T21:03:01.241Z,46.15
2022-12-29T21:05:29.821Z,50.42
2022-12-29T21:07:59.905Z,49.15
2022-12-29T21:10:27.148Z,54.63
2022-12-29T21:12:54.260Z,53.78
2022-12-29T21:15:21.475Z,60.63
2022-12-29T21:17:48.943Z,66.40
2022-12-29T21:20:30.308Z,85.20
2022-12-29T21:23:01.946Z,71.65
2022-12-29T21:25:39.531Z,61.30
2022-12-29T21:28:08.963Z,82.97
2022-12-29T21:30:36.196Z,80.60
2022-12-29T21:33:03.546Z,97.63
2022-12-29T21:35:31.369Z,67.70
2022-12-29T21:37:58.483Z,79.82
2022-12-29T21:40:25.733Z,73.25
2022-12-29T21:42:53.209Z,65.15
2022-12-29T21:45:26.221Z,67.03
2022-12-29T21:48:24.385Z,84.65
2022-12-29T21:51:13.902Z,84.80
2022-12-29T21:53:43.595Z,58.20
2022-12-29T21:56:19.039Z,56.22
2022-12-29T21:59:08.853Z,70.63
2022-12-29T22:01:56.671Z,64.85
2022-12-29T22:04:44.301Z,62.95
2022-12-29T22:07:31.738Z,80.45
2022-12-29T22:10:17.457Z,68.80
2022-12-29T22:13:03.279Z,61.00
2022-12-29T22:15:36.285Z,65.82
2022-12-29T22:18:04.916Z,65.25
2022-12-29T22:20:35.793Z,63.60
2022-12-29T22:23:03.447Z,62.28
2022-12-29T22:25:30.754Z,66.63
2022-12-29T22:27:59.871Z,65.05
2022-12-29T22:30:28.834Z,80.00
2022-12-29T22:32:58.586Z,63.28
2022-12-29T22:35:25.861Z,58.13
2022-12-29T22:37:53.247Z,61.38
2022-12-29T22:40:20.440Z,63.90
2022-12-29T22:42:47.622Z,81.97
2022-12-29T22:45:15.028Z,78.18
2022-12-29T22:47:42.160Z,74.85
2022-12-29T22:50:09.816Z,75.15
2022-12-29T22:52:37.324Z,90.57
2022-12-29T22:55:07.179Z,82.65
2022-12-29T22:57:35.302Z,82.43
2022-12-29T23:00:03.510Z,90.63
2022-12-29T23:02:30.826Z,99.18
2022-12-29T23:05:03.498Z,105.85
2022-12-29T23:07:31.859Z,119.68
2022-12-29T23:09:59.147Z,117.65
2022-12-29T23:12:28.887Z,141.27
2022-12-29T23:14:56.065Z,148.30
2022-12-29T23:17:23.331Z,131.15
2022-12-29T23:19:50.580Z,149.30
2022-12-29T23:22:17.844Z,172.88
2022-12-29T23:24:45.166Z,168.75
2022-12-29T23:27:12.376Z,188.93
2022-12-29T23:29:39.666Z,193.25
2022-12-29T23:32:07.107Z,204.05
2022-12-29T23:34:34.308Z,194.88
2022-12-29T23:37:01.497Z,261.70
2022-12-29T23:39:29.300Z,256.98
2022-12-29T23:41:56.747Z,255.40
2022-12-29T23:44:24.066Z,209.82
2022-12-29T23:46:51.303Z,196.18
2022-12-29T23:49:18.565Z,237.82
2022-12-29T23:51:45.750Z,221.82
2022-12-29T23:54:12.945Z,280.60
2022-12-29T23:56:40.143Z,190.15
2022-12-29T23:59:07.778Z,268.95
